Time;durP1;ratioP1;P1;durP2;ratioP2;P2;SDS_P1;SDS_P2;PMS_P1;PMS_P2;Temp;Humidity;BMP_temperature;BMP_pressure;BME280_temperature;BME280_humidity;BME280_pressure;Samples;Min_cycle;Max_cycle;Signal;HPM_P1;HPM_P2
2023/09/07 00:00:10;;;;;;;5.55;2.60;;;22.80;94.50;;;;;;5016712;28;20037;-56
2023/09/07 00:02:36;;;;;;;4.30;3.03;;;22.80;94.50;;;;;;5036036;28;20037;-56
2023/09/07 00:05:02;;;;;;;8.98;3.08;;;22.80;94.60;;;;;;5018471;28;20049;-56
2023/09/07 00:07:28;;;;;;;3.60;2.78;;;22.70;94.70;;;;;;5038976;28;20083;-57
2023/09/07 00:09:53;;;;;;;7.15;2.90;;;22.70;94.80;;;;;;5041588;28;21596;-56
2023/09/07 00:12:19;;;;;;;4.32;2.88;;;22.70;94.80;;;;;;5027200;28;20095;-57
2023/09/07 00:14:46;;;;;;;5.68;2.97;;;22.70;94.80;;;;;;5037502;28;20136;-56
2023/09/07 00:17:12;;;;;;;7.45;2.85;;;22.60;95.10;;;;;;5035536;28;20511;-56
2023/09/07 00:19:37;;;;;;;7.10;2.83;;;22.60;94.90;;;;;;5036104;28;20629;-57
2023/09/07 00:22:04;;;;;;;5.78;2.85;;;22.60;94.90;;;;;;5028064;28;20041;-56
2023/09/07 00:24:31;;;;;;;5.35;2.97;;;22.50;95.00;;;;;;5037469;28;20515;-57
2023/09/07 00:26:58;;;;;;;4.57;2.63;;;22.50;95.00;;;;;;5038945;28;20051;-56
2023/09/07 00:29:24;;;;;;;10.20;2.80;;;22.50;95.10;;;;;;5037565;28;20048;-55
2023/09/07 00:31:49;;;;;;;7.43;2.63;;;22.40;95.10;;;;;;5037190;28;20068;-56
2023/09/07 00:34:15;;;;;;;7.93;2.83;;;22.40;95.20;;;;;;5038369;28;20059;-55
2023/09/07 00:36:42;;;;;;;4.60;2.50;;;22.40;95.40;;;;;;5035104;28;20048;-56
2023/09/07 00:39:08;;;;;;;4.18;2.83;;;22.30;95.40;;;;;;5037388;28;20037;-54
2023/09/07 00:41:34;;;;;;;5.13;3.25;;;22.20;95.50;;;;;;5036947;28;20044;-56
2023/09/07 00:43:59;;;;;;;5.43;3.35;;;22.20;95.80;;;;;;5038457;28;20844;-57
2023/09/07 00:46:26;;;;;;;4.47;3.13;;;22.10;96.10;;;;;;5037701;28;20056;-56
2023/09/07 00:48:52;;;;;;;5.03;3.20;;;22.10;96.50;;;;;;5035949;28;20052;-56
2023/09/07 00:51:18;;;;;;;5.93;3.15;;;22.00;96.70;;;;;;5037126;28;20036;-56
2023/09/07 00:53:43;;;;;;;6.75;3.10;;;21.90;96.90;;;;;;5039070;28;20060;-57
2023/09/07 00:56:09;;;;;;;6.57;2.83;;;21.90;97.20;;;;;;5040129;28;20036;-56
2023/09/07 00:58:36;;;;;;;5.03;3.20;;;21.80;97.20;;;;;;5037638;28;20052;-56
2023/09/07 01:01:02;;;;;;;9.95;3.33;;;21.80;97.40;;;;;;5040046;28;20680;-55
2023/09/07 01:03:28;;;;;;;5.80;3.35;;;21.70;97.70;;;;;;5035957;28;20049;-56
2023/09/07 01:06:19;;;;;;;6.13;3.10;;;21.70;97.80;;;;;;5018852;28;20578;-55
2023/09/07 01:08:49;;;;;;;7.65;3.42;;;21.60;97.80;;;;;;5032746;28;20045;-56
2023/09/07 01:11:16;;;;;;;6.45;3.20;;;21.60;98.00;;;;;;5031753;28;20047;-53
2023/09/07 01:13:42;;;;;;;3.42;3.13;;;21.60;98.10;;;;;;5033580;28;20471;-56
2023/09/07 01:16:09;;;;;;;7.78;3.25;;;21.50;98.20;;;;;;5037155;28;20044;-55
2023/09/07 01:18:37;;;;;;;5.18;3.30;;;21.50;98.20;;;;;;5028251;28;20454;-56
2023/09/07 01:21:07;;;;;;;5.03;3.30;;;21.50;98.50;;;;;;5022477;28;20045;-55
2023/09/07 01:23:40;;;;;;;5.47;3.67;;;21.40;98.60;;;;;;5020114;28;20040;-53
2023/09/07 01:26:08;;;;;;;6.50;3.60;;;21.30;98.80;;;;;;5030792;28;20132;-55
2023/09/07 01:28:34;;;;;;;5.72;3.70;;;21.30;98.90;;;;;;5033917;28;20621;-54
2023/09/07 01:31:01;;;;;;;6.25;3.30;;;21.30;99.10;;;;;;5033943;28;20050;-56
2023/09/07 01:33:27;;;;;;;4.95;3.38;;;21.20;99.20;;;;;;5032946;28;20389;-56
2023/09/07 01:35:52;;;;;;;6.07;3.95;;;21.20;99.30;;;;;;5037096;28;20634;-56
2023/09/07 01:38:18;;;;;;;7.22;3.72;;;21.20;99.40;;;;;;5035180;28;20057;-55
2023/09/07 01:40:44;;;;;;;7.45;3.50;;;21.10;99.60;;;;;;5033895;28;20115;-55
2023/09/07 01:43:10;;;;;;;9.48;3.70;;;21.10;99.70;;;;;;5034877;28;20128;-56
2023/09/07 01:45:36;;;;;;;7.30;3.90;;;21.00;99.80;;;;;;5034685;28;20053;-55
2023/09/07 01:48:03;;;;;;;4.15;2.90;;;21.00;99.90;;;;;;5038192;28;20061;-55
2023/09/07 01:50:28;;;;;;;7.97;3.78;;;20.90;99.90;;;;;;5035048;28;20045;-54
2023/09/07 01:52:54;;;;;;;6.20;3.78;;;20.90;99.90;;;;;;5035375;28;20094;-55
2023/09/07 01:55:20;;;;;;;5.43;3.53;;;20.90;99.90;;;;;;5036298;28;20059;-55
2023/09/07 01:57:46;;;;;;;5.53;3.47;;;20.80;99.90;;;;;;5026196;28;20048;-55
2023/09/07 02:00:12;;;;;;;6.63;3.83;;;20.80;99.90;;;;;;5034080;28;20507;-54
2023/09/07 02:02:38;;;;;;;4.13;3.42;;;20.80;99.90;;;;;;5030531;28;20045;-54
2023/09/07 02:05:04;;;;;;;4.15;3.40;;;20.80;99.90;;;;;;5031729;28;20400;-56
2023/09/07 02:07:30;;;;;;;6.38;3.83;;;20.70;99.90;;;;;;5035001;28;20214;-55
2023/09/07 02:09:56;;;;;;;4.63;3.60;;;20.70;99.90;;;;;;5033495;28;20484;-55
2023/09/07 02:12:21;;;;;;;8.57;3.63;;;20.70;99.90;;;;;;5039040;28;20101;-55
2023/09/07 02:14:47;;;;;;;5.20;4.00;;;20.60;99.90;;;;;;5034339;28;20063;-56
2023/09/07 02:17:17;;;;;;;7.30;3.55;;;20.60;99.90;;;;;;5035709;28;20319;-55
2023/09/07 02:19:44;;;;;;;7.82;3.97;;;20.50;99.90;;;;;;5037784;28;20043;-55
2023/09/07 02:22:09;;;;;;;5.88;3.90;;;20.50;99.90;;;;;;5034770;28;20045;-55
2023/09/07 02:24:35;;;;;;;5.07;3.60;;;20.40;99.90;;;;;;5010797;28;20050;-55
2023/09/07 02:27:01;;;;;;;6.05;3.65;;;20.40;99.90;;;;;;5032444;28;20523;-54
2023/09/07 02:29:27;;;;;;;3.97;3.30;;;20.40;99.90;;;;;;5027394;28;20404;-55
2023/09/07 02:31:52;;;;;;;5.30;3.58;;;20.40;99.90;;;;;;5022458;28;20041;-54
2023/09/07 02:34:18;;;;;;;6.30;3.70;;;20.30;99.90;;;;;;5027416;28;20559;-55
2023/09/07 02:36:44;;;;;;;5.38;3.30;;;20.30;99.90;;;;;;5001766;28;20076;-56
2023/09/07 02:39:11;;;;;;;4.32;3.33;;;20.30;99.90;;;;;;5029361;28;20041;-54
2023/09/07 02:41:37;;;;;;;5.45;3.50;;;20.20;99.90;;;;;;5030515;28;20456;-55
2023/09/07 02:44:03;;;;;;;4.22;3.50;;;20.20;99.90;;;;;;5013803;28;20041;-55
2023/09/07 02:46:29;;;;;;;4.45;3.25;;;20.10;99.90;;;;;;5031377;28;20146;-55
2023/09/07 02:48:58;;;;;;;5.22;3.72;;;20.10;99.90;;;;;;5026822;28;20048;-56
2023/09/07 02:51:25;;;;;;;4.85;3.58;;;20.00;99.90;;;;;;5033546;28;20045;-55
2023/09/07 02:53:51;;;;;;;6.68;4.38;;;20.00;99.90;;;;;;5014593;28;20045;-55
2023/09/07 02:56:17;;;;;;;4.68;3.70;;;19.90;99.90;;;;;;5028582;28;20447;-56
2023/09/07 02:58:43;;;;;;;6.53;4.20;;;19.90;99.90;;;;;;5031482;28;20146;-54
2023/09/07 03:01:09;;;;;;;7.45;3.95;;;19.80;99.90;;;;;;5025600;28;20072;-55
2023/09/07 03:03:35;;;;;;;5.20;3.92;;;19.80;99.90;;;;;;5029812;28;20047;-55
2023/09/07 03:06:09;;;;;;;5.15;4.25;;;19.80;99.90;;;;;;5031152;28;20522;-55
2023/09/07 03:08:34;;;;;;;6.63;4.50;;;19.80;99.90;;;;;;5031190;28;20119;-56
2023/09/07 03:11:04;;;;;;;4.95;4.30;;;19.70;99.90;;;;;;5030581;28;20131;-55
2023/09/07 03:13:30;;;;;;;6.05;4.25;;;19.70;99.90;;;;;;5033148;28;20041;-55
2023/09/07 03:15:56;;;;;;;5.60;4.35;;;19.60;99.90;;;;;;5031219;28;20525;-55
2023/09/07 03:18:22;;;;;;;5.15;4.63;;;19.50;99.90;;;;;;5030602;28;20052;-55
2023/09/07 03:20:49;;;;;;;5.00;3.85;;;19.50;99.90;;;;;;5028201;28;20564;-55
2023/09/07 03:23:15;;;;;;;6.00;3.90;;;19.40;99.90;;;;;;5030432;28;20499;-55
2023/09/07 03:25:41;;;;;;;6.75;4.70;;;19.40;99.90;;;;;;5032123;28;20052;-55
2023/09/07 03:28:06;;;;;;;9.18;4.50;;;19.40;99.90;;;;;;5027987;28;20127;-55
2023/09/07 03:30:33;;;;;;;7.07;4.53;;;19.40;99.90;;;;;;5034047;28;20048;-53
2023/09/07 03:32:59;;;;;;;6.82;4.68;;;19.30;99.90;;;;;;5030263;28;20069;-55
2023/09/07 03:35:24;;;;;;;6.85;4.55;;;19.30;99.90;;;;;;5022645;28;20164;-56
2023/09/07 03:37:50;;;;;;;5.55;4.80;;;19.20;99.90;;;;;;5032673;28;20499;-56
2023/09/07 03:40:16;;;;;;;6.47;5.70;;;19.20;99.90;;;;;;5034265;28;20053;-55
2023/09/07 03:42:43;;;;;;;11.18;5.40;;;19.20;99.90;;;;;;5021763;28;20416;-54
2023/09/07 03:45:09;;;;;;;8.68;5.63;;;19.10;99.90;;;;;;5032197;28;20391;-55
2023/09/07 03:47:35;;;;;;;6.82;5.90;;;19.10;99.90;;;;;;5031334;28;20503;-54
2023/09/07 03:50:01;;;;;;;7.78;5.53;;;19.10;99.90;;;;;;5027722;28;20051;-53
2023/09/07 03:52:27;;;;;;;7.65;5.75;;;19.10;99.90;;;;;;5026143;28;20045;-55
2023/09/07 03:54:56;;;;;;;11.32;5.70;;;19.00;99.90;;;;;;5030371;28;20036;-55
2023/09/07 03:57:23;;;;;;;7.68;5.57;;;19.10;99.90;;;;;;5008068;28;20491;-56
2023/09/07 03:59:49;;;;;;;7.80;5.90;;;19.00;99.90;;;;;;5030225;28;20043;-55
2023/09/07 04:02:17;;;;;;;7.75;5.72;;;19.00;99.90;;;;;;5031168;28;20053;-55
2023/09/07 04:04:43;;;;;;;8.27;5.88;;;18.90;99.90;;;;;;5034611;28;20052;-55
2023/09/07 04:07:09;;;;;;;8.13;5.90;;;18.90;99.90;;;;;;5035956;28;20545;-55
2023/09/07 04:09:35;;;;;;;6.95;5.45;;;18.90;99.90;;;;;;5041382;28;20037;-56
2023/09/07 04:12:00;;;;;;;8.45;5.90;;;18.90;99.90;;;;;;5004211;28;20041;-55
2023/09/07 04:14:28;;;;;;;13.55;6.30;;;18.90;99.90;;;;;;5034594;28;20431;-55
2023/09/07 04:16:53;;;;;;;6.18;5.25;;;18.80;99.90;;;;;;5039071;28;20119;-55
2023/09/07 04:19:19;;;;;;;7.82;5.55;;;18.90;99.90;;;;;;5037131;28;20036;-54
2023/09/07 04:21:45;;;;;;;8.13;5.95;;;18.80;99.90;;;;;;5037504;28;20562;-54
2023/09/07 04:24:11;;;;;;;6.95;6.20;;;18.80;99.90;;;;;;5035448;28;20147;-55
2023/09/07 04:26:37;;;;;;;6.22;5.63;;;18.80;99.90;;;;;;5037586;28;20037;-55
2023/09/07 04:29:03;;;;;;;8.95;5.55;;;18.70;99.90;;;;;;5018024;28;20049;-55
2023/09/07 04:31:29;;;;;;;6.78;5.90;;;18.70;99.90;;;;;;5032415;28;20044;-55
2023/09/07 04:33:55;;;;;;;8.43;5.80;;;18.70;99.90;;;;;;5036515;28;20076;-54
2023/09/07 04:36:21;;;;;;;10.27;6.35;;;18.70;99.90;;;;;;5033912;28;20606;-54
2023/09/07 04:38:46;;;;;;;7.63;5.55;;;18.70;99.90;;;;;;5033631;28;20048;-54
2023/09/07 04:41:13;;;;;;;7.38;5.65;;;18.70;99.90;;;;;;5037585;28;20045;-54
2023/09/07 04:43:42;;;;;;;6.43;5.80;;;18.70;99.90;;;;;;5012397;28;20440;-55
2023/09/07 04:46:09;;;;;;;9.23;6.00;;;18.60;99.90;;;;;;5031907;28;20069;-55
2023/09/07 04:48:34;;;;;;;8.40;6.40;;;18.60;99.90;;;;;;5035836;28;20479;-55
2023/09/07 04:51:04;;;;;;;7.25;5.63;;;18.60;99.90;;;;;;5033785;28;20037;-55
2023/09/07 04:53:32;;;;;;;10.32;6.20;;;18.50;99.90;;;;;;5033271;28;20302;-55
2023/09/07 04:55:58;;;;;;;9.73;6.30;;;18.50;99.90;;;;;;5035700;28;20129;-55
2023/09/07 04:58:24;;;;;;;6.50;5.80;;;18.50;99.90;;;;;;5034708;28;20549;-54
2023/09/07 05:00:50;;;;;;;8.27;5.85;;;18.50;99.90;;;;;;5023479;28;20170;-55
2023/09/07 05:03:16;;;;;;;7.68;6.03;;;18.50;99.90;;;;;;5028330;28;20087;-56
2023/09/07 05:05:43;;;;;;;9.25;5.55;;;18.50;99.90;;;;;;5036615;28;20894;-54
2023/09/07 05:08:09;;;;;;;12.10;6.35;;;18.40;99.90;;;;;;5038169;28;20047;-54
2023/09/07 05:10:36;;;;;;;11.80;6.30;;;18.40;99.90;;;;;;5037465;28;20052;-54
2023/09/07 05:13:02;;;;;;;7.75;6.68;;;18.40;99.90;;;;;;5034680;28;20060;-55
2023/09/07 05:15:28;;;;;;;13.60;6.75;;;18.40;99.90;;;;;;5026656;28;20689;-56
2023/09/07 05:17:54;;;;;;;6.90;6.18;;;18.40;99.90;;;;;;5032167;28;20194;-55
2023/09/07 05:20:20;;;;;;;9.40;6.32;;;18.40;99.90;;;;;;5031804;28;20582;-55
2023/09/07 05:22:46;;;;;;;8.02;6.00;;;18.40;99.90;;;;;;5031575;28;20033;-55
2023/09/07 05:25:12;;;;;;;8.65;5.90;;;18.40;99.90;;;;;;5026931;28;20032;-54
2023/09/07 05:27:38;;;;;;;11.02;6.18;;;18.40;99.90;;;;;;5031858;28;20040;-55
2023/09/07 05:30:05;;;;;;;10.25;6.35;;;18.40;99.90;;;;;;5030922;28;20064;-56
2023/09/07 05:32:31;;;;;;;9.93;6.15;;;18.40;99.90;;;;;;5029151;28;20841;-53
2023/09/07 05:34:56;;;;;;;12.52;6.80;;;18.40;99.90;;;;;;5029096;28;20411;-54
2023/09/07 05:37:22;;;;;;;8.75;6.30;;;18.40;99.90;;;;;;5031481;28;20560;-55
2023/09/07 05:39:48;;;;;;;12.45;6.22;;;18.40;99.90;;;;;;5030515;28;20044;-55
2023/09/07 05:42:14;;;;;;;8.48;5.93;;;18.40;99.90;;;;;;5029918;28;20065;-54
2023/09/07 05:44:40;;;;;;;9.45;6.15;;;18.50;99.90;;;;;;5019663;28;20119;-56
2023/09/07 05:47:06;;;;;;;9.10;6.05;;;18.50;99.90;;;;;;5032717;28;20045;-55
2023/09/07 05:49:32;;;;;;;7.78;6.00;;;18.60;99.90;;;;;;5036076;28;20554;-56
2023/09/07 05:51:57;;;;;;;7.20;5.90;;;18.60;99.90;;;;;;5036008;28;20037;-56
2023/09/07 05:54:23;;;;;;;7.03;6.15;;;18.60;99.90;;;;;;5027840;28;20085;-54
2023/09/07 05:56:49;;;;;;;6.60;5.80;;;18.70;99.90;;;;;;5034492;28;20053;-55
2023/09/07 05:59:15;;;;;;;10.32;6.55;;;18.70;99.90;;;;;;5035074;28;20368;-56
2023/09/07 06:01:42;;;;;;;10.00;6.90;;;18.70;99.90;;;;;;5025163;28;20905;-57
2023/09/07 06:04:08;;;;;;;9.40;6.03;;;18.80;99.90;;;;;;5027382;28;20382;-53
2023/09/07 06:06:33;;;;;;;8.10;6.30;;;18.80;99.90;;;;;;5035057;28;20059;-57
2023/09/07 06:08:59;;;;;;;9.93;6.00;;;18.90;99.90;;;;;;5030007;28;20049;-56
2023/09/07 06:11:25;;;;;;;8.48;6.10;;;18.90;99.90;;;;;;5023463;28;20044;-56
2023/09/07 06:13:51;;;;;;;11.13;6.03;;;19.00;99.90;;;;;;5027651;28;20048;-56
2023/09/07 06:16:17;;;;;;;11.13;6.22;;;19.00;99.90;;;;;;5036506;28;20051;-56
2023/09/07 06:18:43;;;;;;;8.98;6.40;;;19.10;99.90;;;;;;5044182;28;20049;-57
2023/09/07 06:21:09;;;;;;;10.48;6.47;;;19.10;99.90;;;;;;5024819;28;20589;-57
2023/09/07 06:23:35;;;;;;;11.18;6.45;;;19.20;99.90;;;;;;5046593;28;20112;-57
2023/09/07 06:26:01;;;;;;;10.90;5.97;;;19.20;99.90;;;;;;5039885;28;20036;-58
2023/09/07 06:28:27;;;;;;;10.45;6.13;;;19.20;99.90;;;;;;5043897;28;20048;-56
2023/09/07 06:30:53;;;;;;;10.52;6.28;;;19.30;99.90;;;;;;5043259;28;20063;-57
2023/09/07 06:33:18;;;;;;;8.43;6.32;;;19.30;99.90;;;;;;5043649;28;20033;-57
2023/09/07 06:35:44;;;;;;;10.18;6.20;;;19.30;99.90;;;;;;5039643;28;20398;-57
2023/09/07 06:38:10;;;;;;;9.15;6.28;;;19.40;99.90;;;;;;5049505;28;20036;-56
2023/09/07 06:40:36;;;;;;;8.52;6.40;;;19.40;99.90;;;;;;5045553;28;20044;-58
2023/09/07 06:43:05;;;;;;;10.85;6.07;;;19.50;99.90;;;;;;5045404;28;20052;-58
2023/09/07 06:45:36;;;;;;;12.27;6.53;;;19.50;99.90;;;;;;5042084;28;20071;-56
2023/09/07 06:48:03;;;;;;;8.37;6.10;;;19.60;99.90;;;;;;5033159;28;20132;-57
2023/09/07 06:50:30;;;;;;;7.53;6.03;;;19.60;99.90;;;;;;5038764;28;20357;-56
2023/09/07 06:52:56;;;;;;;9.98;6.03;;;19.70;99.90;;;;;;5042904;28;20491;-57
2023/09/07 06:55:21;;;;;;;9.52;5.90;;;19.70;99.90;;;;;;5044609;28;20041;-56
2023/09/07 06:57:47;;;;;;;7.45;5.97;;;19.80;99.90;;;;;;5048910;28;20072;-54
2023/09/07 07:00:13;;;;;;;8.27;5.68;;;19.80;99.90;;;;;;5040913;28;20040;-58
2023/09/07 07:02:39;;;;;;;9.00;5.88;;;19.90;99.90;;;;;;5043252;28;20703;-56
2023/09/07 07:05:05;;;;;;;10.75;5.82;;;20.00;99.90;;;;;;5031342;28;20075;-58
2023/09/07 07:07:31;;;;;;;7.93;5.53;;;20.00;99.90;;;;;;5029122;28;20056;-58
2023/09/07 07:09:57;;;;;;;10.75;6.15;;;20.10;99.90;;;;;;5028670;28;20036;-58
2023/09/07 07:12:23;;;;;;;7.97;5.43;;;20.20;99.90;;;;;;5026758;28;20051;-58
2023/09/07 07:14:48;;;;;;;9.60;5.70;;;20.20;99.90;;;;;;5028833;28;20039;-56
2023/09/07 07:17:14;;;;;;;7.70;5.32;;;20.30;99.90;;;;;;5026874;28;20050;-57
2023/09/07 07:19:41;;;;;;;6.78;5.38;;;20.40;99.90;;;;;;5027964;28;20036;-54
2023/09/07 07:22:07;;;;;;;8.48;5.40;;;20.50;99.90;;;;;;5046156;28;20045;-56
2023/09/07 07:24:32;;;;;;;17.67;5.93;;;20.60;99.90;;;;;;5025066;28;20466;-57
2023/09/07 07:26:58;;;;;;;11.02;5.68;;;20.60;99.90;;;;;;5037686;28;20045;-58
2023/09/07 07:29:24;;;;;;;11.23;6.05;;;20.80;99.90;;;;;;5039465;28;20060;-57
2023/09/07 07:31:50;;;;;;;6.57;5.28;;;20.80;99.90;;;;;;5037141;28;20029;-57
2023/09/07 07:34:16;;;;;;;9.38;5.40;;;20.90;99.90;;;;;;5045676;28;20124;-57
2023/09/07 07:36:42;;;;;;;7.63;5.30;;;21.10;99.90;;;;;;5043841;28;20451;-58
2023/09/07 07:39:07;;;;;;;15.15;6.00;;;21.20;99.90;;;;;;5045478;28;20225;-58
2023/09/07 07:41:33;;;;;;;8.38;5.70;;;21.30;99.90;;;;;;5056183;28;20041;-56
2023/09/07 07:43:59;;;;;;;6.38;4.97;;;21.50;99.90;;;;;;5048537;28;20156;-58
2023/09/07 07:46:25;;;;;;;8.50;4.93;;;21.60;99.90;;;;;;5050482;28;20389;-59
2023/09/07 07:48:50;;;;;;;8.02;5.30;;;21.70;99.90;;;;;;5049891;28;20083;-57
2023/09/07 07:51:16;;;;;;;8.32;5.43;;;21.80;99.90;;;;;;5046936;28;20916;-56
2023/09/07 07:53:42;;;;;;;7.70;5.47;;;22.00;99.90;;;;;;5047656;28;20049;-56
2023/09/07 07:56:18;;;;;;;11.50;5.10;;;22.10;99.90;;;;;;5050226;28;20082;-58
2023/09/07 07:58:46;;;;;;;8.70;5.65;;;22.20;99.90;;;;;;5048061;28;20043;-57
2023/09/07 08:01:17;;;;;;;8.27;5.45;;;22.40;99.90;;;;;;5050239;28;20041;-57
2023/09/07 08:03:43;;;;;;;9.90;5.60;;;22.50;99.90;;;;;;5049454;28;20488;-56
2023/09/07 08:06:10;;;;;;;8.25;5.85;;;22.60;99.90;;;;;;5051838;28;20129;-58
2023/09/07 08:08:36;;;;;;;9.43;5.85;;;22.70;99.90;;;;;;5042248;28;20172;-57
2023/09/07 08:11:05;;;;;;;8.07;5.18;;;22.80;99.70;;;;;;5050029;28;20033;-57
2023/09/07 08:13:35;;;;;;;9.48;4.93;;;22.90;99.60;;;;;;5032861;28;20571;-58
2023/09/07 08:16:02;;;;;;;9.98;5.20;;;23.10;99.40;;;;;;5046976;28;20040;-58
2023/09/07 08:18:28;;;;;;;7.78;4.75;;;23.20;99.20;;;;;;5049526;28;20070;-58
2023/09/07 08:20:55;;;;;;;10.48;5.28;;;23.30;99.10;;;;;;5047964;28;20143;-57
2023/09/07 08:23:23;;;;;;;7.70;5.35;;;23.50;98.80;;;;;;5049623;28;20124;-55
2023/09/07 08:25:49;;;;;;;9.27;4.80;;;23.60;98.50;;;;;;5044963;28;20547;-58
2023/09/07 08:28:15;;;;;;;7.32;4.82;;;23.70;98.30;;;;;;5045793;28;20047;-57
2023/09/07 08:30:41;;;;;;;6.65;4.90;;;23.80;98.20;;;;;;5047257;28;20499;-58
2023/09/07 08:33:08;;;;;;;7.43;5.28;;;24.00;98.20;;;;;;5046237;28;20049;-57
2023/09/07 08:35:35;;;;;;;6.35;5.40;;;24.10;98.10;;;;;;5050716;28;20138;-56
2023/09/07 08:38:08;;;;;;;5.70;5.10;;;24.30;97.80;;;;;;5046708;28;20059;-58
2023/09/07 08:40:35;;;;;;;13.32;5.88;;;24.40;97.60;;;;;;5049118;28;20048;-56
2023/09/07 08:43:06;;;;;;;7.55;5.32;;;24.40;97.20;;;;;;5042093;28;20454;-58
2023/09/07 08:45:37;;;;;;;10.77;5.22;;;24.50;96.90;;;;;;5047401;28;20041;-56
2023/09/07 08:48:04;;;;;;;7.90;5.00;;;24.60;96.80;;;;;;5045490;28;20398;-57
2023/09/07 08:50:31;;;;;;;5.18;4.68;;;24.80;96.90;;;;;;5050964;28;20032;-58
2023/09/07 08:52:59;;;;;;;13.82;5.20;;;24.90;97.10;;;;;;5043284;28;20162;-57
2023/09/07 08:55:25;;;;;;;8.32;4.68;;;25.00;96.80;;;;;;5029072;28;20555;-58
2023/09/07 08:57:51;;;;;;;9.10;5.00;;;25.10;96.40;;;;;;5033121;28;20045;-56
2023/09/07 09:00:17;;;;;;;5.25;4.75;;;25.20;96.00;;;;;;5017397;28;20128;-58
2023/09/07 09:02:46;;;;;;;9.55;5.40;;;25.40;96.10;;;;;;5036947;28;20059;-58
2023/09/07 09:05:14;;;;;;;13.00;4.60;;;25.50;95.60;;;;;;5034891;28;20045;-58
2023/09/07 09:07:40;;;;;;;11.88;5.03;;;25.60;95.30;;;;;;5039199;28;20032;-57
2023/09/07 09:10:07;;;;;;;8.23;4.47;;;25.70;94.70;;;;;;5034910;28;20033;-57
2023/09/07 09:12:34;;;;;;;6.50;4.43;;;25.80;94.60;;;;;;5034877;28;20075;-59
2023/09/07 09:15:03;;;;;;;10.65;4.57;;;26.00;95.00;;;;;;5039174;28;20103;-57
2023/09/07 09:17:28;;;;;;;10.18;4.88;;;26.10;94.20;;;;;;5039873;28;20045;-58
2023/09/07 09:19:54;;;;;;;9.15;4.78;;;26.20;93.70;;;;;;5040291;28;20063;-57
2023/09/07 09:22:20;;;;;;;9.73;4.25;;;26.30;93.40;;;;;;5034658;28;20480;-58
2023/09/07 09:24:49;;;;;;;7.95;4.35;;;26.50;93.00;;;;;;5035786;28;20041;-58
2023/09/07 09:27:14;;;;;;;4.78;3.70;;;26.60;92.30;;;;;;5038494;28;20093;-58
2023/09/07 09:29:40;;;;;;;5.88;4.20;;;26.70;91.70;;;;;;5039216;28;20040;-58
2023/09/07 09:32:07;;;;;;;10.27;3.88;;;26.90;90.90;;;;;;5036521;28;20056;-57
2023/09/07 09:34:34;;;;;;;8.52;3.97;;;27.00;90.20;;;;;;5036973;28;20063;-59
2023/09/07 09:37:02;;;;;;;6.55;4.28;;;27.10;90.30;;;;;;5036870;28;20549;-58
2023/09/07 09:39:27;;;;;;;5.95;4.10;;;27.20;88.50;;;;;;5036489;28;20076;-59
2023/09/07 09:41:54;;;;;;;6.22;4.20;;;27.30;89.00;;;;;;5037221;28;20132;-57
2023/09/07 09:44:26;;;;;;;10.50;3.92;;;27.50;87.50;;;;;;5038029;28;20178;-57
2023/09/07 09:46:56;;;;;;;6.55;3.83;;;27.50;85.90;;;;;;5037226;28;20529;-57
2023/09/07 09:49:22;;;;;;;5.38;3.65;;;27.60;84.90;;;;;;5037196;28;20042;-58
2023/09/07 09:51:51;;;;;;;8.10;3.70;;;27.70;83.70;;;;;;5032876;28;20726;-58
2023/09/07 09:54:18;;;;;;;5.05;3.70;;;27.70;82.70;;;;;;5034642;28;20079;-58
2023/09/07 09:56:44;;;;;;;9.45;3.97;;;27.80;81.40;;;;;;5026074;28;20128;-58
2023/09/07 09:59:12;;;;;;;4.80;3.67;;;27.90;80.70;;;;;;5017134;28;20163;-57
2023/09/07 10:01:53;;;;;;;11.40;4.57;;;28.00;81.60;;;;;;5030152;28;20121;-59
2023/09/07 10:04:22;;;;;;;6.35;3.83;;;28.20;81.50;;;;;;5035105;28;20033;-59
2023/09/07 10:07:05;;;;;;;5.43;3.95;;;28.40;80.30;;;;;;5039999;28;20052;-58
2023/09/07 10:09:34;;;;;;;;;;;28.50;79.30;;;;;;5036091;28;20156;-58
2023/09/07 10:12:03;;;;;;;5.63;3.92;;;28.60;79.80;;;;;;5038777;28;20390;-57
2023/09/07 10:14:39;;;;;;;7.38;3.85;;;28.70;78.60;;;;;;5037764;28;20040;-59
2023/09/07 10:17:05;;;;;;;5.80;3.80;;;28.80;78.60;;;;;;5036303;28;20049;-58
2023/09/07 10:19:31;;;;;;;7.22;4.15;;;28.80;77.50;;;;;;5039811;28;20451;-58
2023/09/07 10:21:57;;;;;;;6.32;3.83;;;28.90;76.70;;;;;;5032463;28;20041;-57
2023/09/07 10:24:29;;;;;;;10.43;3.75;;;29.00;75.80;;;;;;5035344;28;20081;-57
2023/09/07 10:27:00;;;;;;;9.32;3.42;;;29.00;76.00;;;;;;5038433;28;20045;-58
2023/09/07 10:29:27;;;;;;;4.95;3.58;;;29.20;75.90;;;;;;5034588;28;20065;-57
2023/09/07 10:31:53;;;;;;;5.68;3.78;;;29.40;75.80;;;;;;5039124;28;20176;-59
2023/09/07 10:34:19;;;;;;;7.78;3.53;;;29.50;74.60;;;;;;5034880;28;20057;-58
2023/09/07 10:36:45;;;;;;;7.82;3.70;;;29.60;74.60;;;;;;5034401;28;20041;-57
2023/09/07 10:39:12;;;;;;;7.32;3.78;;;29.70;74.60;;;;;;5038065;28;20078;-58
2023/09/07 10:41:45;;;;;;;5.13;3.42;;;29.90;73.50;;;;;;5037132;28;20099;-58
2023/09/07 10:44:13;;;;;;;4.78;3.58;;;30.00;73.50;;;;;;5037366;28;20048;-59
2023/09/07 10:46:39;;;;;;;6.38;3.40;;;30.10;73.10;;;;;;5032901;28;20047;-58
2023/09/07 10:49:11;;;;;;;6.05;3.78;;;30.30;72.70;;;;;;5034955;28;20495;-58
2023/09/07 10:51:45;;;;;;;6.28;3.65;;;30.30;71.50;;;;;;5035504;28;20110;-58
2023/09/07 10:54:25;;;;;;;6.65;3.28;;;30.50;72.60;;;;;;5039858;28;20550;-57
2023/09/07 10:56:51;;;;;;;7.15;3.83;;;30.60;71.50;;;;;;5034388;28;20047;-58
2023/09/07 10:59:17;;;;;;;3.75;3.28;;;30.60;70.50;;;;;;5033195;28;20072;-55
2023/09/07 11:01:48;;;;;;;5.72;3.50;;;30.70;70.10;;;;;;5034181;28;20049;-59
2023/09/07 11:04:17;;;;;;;9.75;3.50;;;30.60;69.30;;;;;;5022694;28;20060;-58
2023/09/07 11:06:43;;;;;;;4.40;3.58;;;30.70;68.70;;;;;;5024258;28;20045;-59
2023/09/07 11:09:10;;;;;;;7.05;3.78;;;30.70;68.90;;;;;;5035202;28;20048;-59
2023/09/07 11:11:36;;;;;;;7.47;3.60;;;30.80;67.80;;;;;;5031005;28;20102;-59
2023/09/07 11:14:05;;;;;;;5.45;3.75;;;30.90;67.40;;;;;;5036129;28;20483;-59
2023/09/07 11:16:33;;;;;;;6.88;3.58;;;31.10;66.90;;;;;;5038838;28;20589;-58
2023/09/07 11:19:06;;;;;;;7.38;3.60;;;31.20;67.30;;;;;;5037379;28;20064;-57
2023/09/07 11:21:35;;;;;;;9.27;3.60;;;31.30;66.60;;;;;;5037208;28;20043;-58
2023/09/07 11:24:04;;;;;;;8.48;3.42;;;31.40;65.70;;;;;;5042925;28;20488;-58
2023/09/07 11:26:43;;;;;;;6.22;3.05;;;31.50;65.20;;;;;;5034930;28;20465;-59
2023/09/07 11:29:09;;;;;;;3.95;3.03;;;31.50;64.30;;;;;;5038049;28;20064;-57
2023/09/07 11:31:35;;;;;;;7.65;3.95;;;31.50;62.70;;;;;;5036497;28;20478;-57
2023/09/07 11:34:00;;;;;;;5.65;3.45;;;31.50;61.80;;;;;;5038101;28;20041;-57
2023/09/07 11:36:27;;;;;;;7.75;2.97;;;31.50;61.10;;;;;;5036048;28;20045;-58
2023/09/07 11:38:53;;;;;;;7.18;3.17;;;31.70;61.60;;;;;;5024817;28;20175;-57
2023/09/07 11:41:19;;;;;;;5.55;2.85;;;31.70;60.40;;;;;;5036769;28;20208;-58
2023/09/07 11:43:45;;;;;;;4.18;2.90;;;31.70;60.30;;;;;;5033271;28;20053;-58
2023/09/07 11:46:11;;;;;;;4.32;3.30;;;31.80;60.50;;;;;;5035535;28;20051;-58
2023/09/07 11:48:36;;;;;;;4.20;3.33;;;31.90;59.60;;;;;;5032300;28;20045;-59
2023/09/07 11:51:02;;;;;;;5.90;3.30;;;32.00;58.90;;;;;;5037315;28;20529;-58
2023/09/07 11:53:29;;;;;;;8.32;3.22;;;32.00;59.10;;;;;;5031670;28;20062;-57
2023/09/07 11:55:56;;;;;;;3.95;3.08;;;32.10;59.10;;;;;;5038669;28;20172;-58
2023/09/07 11:58:24;;;;;;;3.80;3.00;;;32.30;58.50;;;;;;5037023;28;20048;-58
2023/09/07 12:00:50;;;;;;;4.25;2.92;;;32.40;58.60;;;;;;5037007;28;20770;-58
2023/09/07 12:03:16;;;;;;;4.88;2.92;;;32.50;58.00;;;;;;5039532;28;20049;-58
2023/09/07 12:05:44;;;;;;;10.07;3.53;;;32.60;57.80;;;;;;5030322;28;20053;-58
2023/09/07 12:08:09;;;;;;;7.47;3.30;;;32.70;58.70;;;;;;5028949;28;20041;-58
2023/09/07 12:10:35;;;;;;;4.35;3.40;;;32.80;59.10;;;;;;5035438;28;20047;-56
2023/09/07 12:13:01;;;;;;;6.35;3.13;;;32.90;58.70;;;;;;5031562;28;20295;-57
2023/09/07 12:15:27;;;;;;;6.28;3.22;;;32.90;58.50;;;;;;5037882;28;20038;-56
2023/09/07 12:17:54;;;;;;;3.72;2.90;;;33.10;58.00;;;;;;5038188;28;20493;-57
2023/09/07 12:20:21;;;;;;;7.47;3.55;;;33.20;58.20;;;;;;5033548;28;20051;-59
2023/09/07 12:22:47;;;;;;;6.05;3.40;;;33.40;58.60;;;;;;5034124;28;20036;-60
2023/09/07 12:25:12;;;;;;;3.25;2.95;;;33.60;57.70;;;;;;5034245;28;20044;-59
2023/09/07 12:27:38;;;;;;;6.50;3.38;;;33.70;56.10;;;;;;5034308;28;20043;-58
2023/09/07 12:30:08;;;;;;;7.55;3.35;;;33.70;55.70;;;;;;5034705;28;20148;-58
2023/09/07 12:32:34;;;;;;;4.93;3.38;;;33.60;53.80;;;;;;5034176;28;20041;-57
2023/09/07 12:35:00;;;;;;;6.95;3.15;;;33.50;52.80;;;;;;5033536;28;20087;-58
2023/09/07 12:37:25;;;;;;;6.05;3.55;;;33.30;53.20;;;;;;5031189;28;20039;-58
2023/09/07 12:39:51;;;;;;;3.50;3.20;;;33.30;54.30;;;;;;5036476;28;20045;-57
2023/09/07 12:42:17;;;;;;;6.72;3.50;;;33.30;54.50;;;;;;5038251;28;20499;-57